createdAt,value
2019-02-05T00:01:01.502Z,19.43
2019-02-05T00:03:29.811Z,19.87
2019-02-05T00:05:58.214Z,20.50
2019-02-05T00:08:26.543Z,16.20
2019-02-05T00:10:55.187Z,17.23
2019-02-05T00:13:23.540Z,22.30
2019-02-05T00:15:51.679Z,20.60
2019-02-05T00:18:19.956Z,18.17
2019-02-05T00:20:48.166Z,17.23
2019-02-05T00:23:16.410Z,18.40
2019-02-05T00:25:44.629Z,17.63
2019-02-05T00:28:12.911Z,17.50
2019-02-05T00:30:41.184Z,19.23
2019-02-05T00:33:09.460Z,19.17
2019-02-05T00:35:37.742Z,17.40
2019-02-05T00:38:06.101Z,25.40
2019-02-05T00:40:34.240Z,15.77
2019-02-05T00:43:03.295Z,19.60
2019-02-05T00:45:31.661Z,19.73
2019-02-05T00:47:59.793Z,18.67
2019-02-05T00:50:27.920Z,17.57
2019-02-05T00:52:56.187Z,16.23
2019-02-05T00:55:24.359Z,18.13
2019-02-05T00:57:52.700Z,15.97
2019-02-05T01:00:27.257Z,16.93
2019-02-05T01:02:57.435Z,17.27
2019-02-05T01:05:25.950Z,20.27
2019-02-05T01:07:54.392Z,18.53
2019-02-05T01:10:25.111Z,19.40
2019-02-05T01:12:54.104Z,19.40
2019-02-05T01:15:23.050Z,18.90
2019-02-05T01:17:51.545Z,22.33
2019-02-05T01:20:20.042Z,19.70
2019-02-05T01:22:48.920Z,24.27
2019-02-05T01:25:17.782Z,21.10
2019-02-05T01:27:46.448Z,22.37
2019-02-05T01:30:18.536Z,20.90
2019-02-05T01:32:46.613Z,20.47
2019-02-05T01:35:15.092Z,21.43
2019-02-05T01:37:43.432Z,20.00
2019-02-05T01:40:15.581Z,19.67
2019-02-05T01:42:44.245Z,17.53
2019-02-05T01:45:15.589Z,19.13
2019-02-05T01:47:45.533Z,18.93
2019-02-05T01:50:20.279Z,20.70
2019-02-05T01:52:48.384Z,19.67
2019-02-05T01:55:16.501Z,20.80
2019-02-05T01:57:44.980Z,19.50
2019-02-05T02:00:17.961Z,21.77
2019-02-05T02:02:46.549Z,21.27
2019-02-05T02:05:15.279Z,19.90
2019-02-05T02:07:43.605Z,20.67
2019-02-05T02:10:16.666Z,19.43
2019-02-05T02:12:45.149Z,22.63
2019-02-05T02:15:13.749Z,20.73
2019-02-05T02:17:42.045Z,20.00
2019-02-05T02:20:13.837Z,23.67
2019-02-05T02:22:41.995Z,20.73
2019-02-05T02:25:11.264Z,24.43
2019-02-05T02:27:39.812Z,21.77
2019-02-05T02:30:17.944Z,21.70
2019-02-05T02:32:46.037Z,21.17
2019-02-05T02:35:14.412Z,26.37
2019-02-05T02:37:42.673Z,22.70
2019-02-05T02:40:11.476Z,21.13
2019-02-05T02:42:40.001Z,24.27
2019-02-05T02:45:10.767Z,22.83
2019-02-05T02:47:38.781Z,20.00
2019-02-05T02:50:09.301Z,20.37
2019-02-05T02:52:37.534Z,22.50
2019-02-05T02:55:07.251Z,20.40
2019-02-05T02:57:35.496Z,25.43
2019-02-05T03:00:07.288Z,22.37
2019-02-05T03:02:35.598Z,25.43
2019-02-05T03:05:07.047Z,22.50
2019-02-05T03:07:35.428Z,24.60
2019-02-05T03:10:05.554Z,22.80
2019-02-05T03:12:35.169Z,26.37
2019-02-05T03:15:04.661Z,24.90
2019-02-05T03:17:34.118Z,25.60
2019-02-05T03:20:02.502Z,28.63
2019-02-05T03:22:31.806Z,26.77
2019-02-05T03:24:59.968Z,29.93
2019-02-05T03:27:28.083Z,26.80
2019-02-05T03:29:56.252Z,27.00
2019-02-05T03:32:24.349Z,28.13
2019-02-05T03:34:52.599Z,28.13
2019-02-05T03:37:20.904Z,31.50
2019-02-05T03:39:49.078Z,31.17
2019-02-05T03:42:17.423Z,30.87
2019-02-05T03:44:45.662Z,33.13
2019-02-05T03:47:14.307Z,34.87
2019-02-05T03:49:42.425Z,34.50
2019-02-05T03:52:20.221Z,33.90
2019-02-05T03:55:37.422Z,31.87
2019-02-05T03:59:04.665Z,35.40
2019-02-05T04:02:24.900Z,37.77
2019-02-05T04:06:00.657Z,36.87
2019-02-05T04:08:57.113Z,38.73
2019-02-05T04:12:27.896Z,36.80
2019-02-05T04:15:34.269Z,33.23
2019-02-05T04:18:39.429Z,34.57
2019-02-05T04:21:29.825Z,36.00
2019-02-05T04:25:08.079Z,35.87
2019-02-05T04:28:05.364Z,32.60
2019-02-05T04:31:11.241Z,31.80
2019-02-05T04:34:58.680Z,30.77
2019-02-05T04:38:21.126Z,31.83
2019-02-05T04:42:01.977Z,32.07
2019-02-05T04:45:00.327Z,31.20
2019-02-05T04:48:36.105Z,31.70
2019-02-05T04:52:07.823Z,31.43
2019-02-05T04:55:30.529Z,30.00
2019-02-05T04:58:23.454Z,26.33
2019-02-05T05:02:06.119Z,28.57
2019-02-05T05:05:40.848Z,30.60
2019-02-05T05:09:22.593Z,28.77
2019-02-05T05:11:50.774Z,32.90
2019-02-05T05:14:18.912Z,31.20
2019-02-05T05:16:47.040Z,30.73
2019-02-05T05:19:15.626Z,32.43
2019-02-05T05:21:44.827Z,29.43
2019-02-05T05:24:12.967Z,33.60
2019-02-05T05:26:41.238Z,34.50
2019-02-05T05:29:09.615Z,31.50
2019-02-05T05:31:37.941Z,32.10
2019-02-05T05:34:07.197Z,30.73
2019-02-05T05:36:35.608Z,33.63
2019-02-05T05:39:07.312Z,34.27
2019-02-05T05:41:35.439Z,31.50
2019-02-05T05:44:03.917Z,41.00
2019-02-05T05:46:32.044Z,33.30
2019-02-05T05:49:00.145Z,32.90
2019-02-05T05:51:28.302Z,37.13
2019-02-05T05:53:56.824Z,32.50
2019-02-05T05:56:24.925Z,37.47
2019-02-05T05:58:53.149Z,32.67
2019-02-05T06:01:21.192Z,31.20
2019-02-05T06:03:49.264Z,36.43
2019-02-05T06:06:17.544Z,33.37
2019-02-05T06:08:45.666Z,35.50
2019-02-05T06:11:13.768Z,34.93
2019-02-05T06:13:42.320Z,35.37
2019-02-05T06:16:10.542Z,35.80
2019-02-05T06:18:38.820Z,33.63
2019-02-05T06:21:07.075Z,34.13
2019-02-05T06:23:35.221Z,35.67
2019-02-05T06:26:03.364Z,34.60
2019-02-05T06:28:34.837Z,38.50
2019-02-05T06:31:01.799Z,36.90
2019-02-05T06:33:30.073Z,36.43
2019-02-05T06:35:59.263Z,33.63
2019-02-05T06:38:28.409Z,41.57
2019-02-05T06:40:56.690Z,36.43
2019-02-05T06:43:24.773Z,38.47
2019-02-05T06:45:53.258Z,37.07
2019-02-05T06:48:21.518Z,35.63
2019-02-05T06:50:49.639Z,40.77
2019-02-05T06:53:17.893Z,39.13
2019-02-05T06:55:46.193Z,40.30
2019-02-05T06:58:14.412Z,39.70
2019-02-05T07:00:42.643Z,47.47
2019-02-05T07:03:10.948Z,37.90
2019-02-05T07:05:39.152Z,39.93
2019-02-05T07:08:07.431Z,41.73
2019-02-05T07:10:35.566Z,39.03
2019-02-05T07:13:03.949Z,42.60
2019-02-05T07:15:32.044Z,42.30
2019-02-05T07:18:00.256Z,42.57
2019-02-05T07:20:28.621Z,38.30
2019-02-05T07:22:57.337Z,44.30
2019-02-05T07:25:25.545Z,41.47
2019-02-05T07:27:53.733Z,40.33
2019-02-05T07:30:23.309Z,37.90
2019-02-05T07:32:52.308Z,44.53
2019-02-05T07:35:20.752Z,41.17
2019-02-05T07:37:49.299Z,35.33
2019-02-05T07:40:18.632Z,39.37
2019-02-05T07:42:47.989Z,35.57
2019-02-05T07:45:18.860Z,36.17
2019-02-05T07:47:47.088Z,32.93
2019-02-05T07:50:25.205Z,31.30
2019-02-05T07:52:53.893Z,37.60
2019-02-05T07:55:22.672Z,33.53
2019-02-05T07:57:51.130Z,31.70
2019-02-05T08:00:25.121Z,36.37
2019-02-05T08:02:53.324Z,37.97
2019-02-05T08:05:25.926Z,40.77
2019-02-05T08:07:54.466Z,43.67
2019-02-05T08:10:22.667Z,42.50
2019-02-05T08:12:51.281Z,45.73
2019-02-05T08:15:24.347Z,43.10
2019-02-05T08:17:52.875Z,43.50
2019-02-05T08:20:21.221Z,40.03
2019-02-05T08:22:50.091Z,40.90
2019-02-05T08:25:18.724Z,40.93
2019-02-05T08:27:47.057Z,45.77
2019-02-05T08:30:37.605Z,41.90
2019-02-05T08:33:06.087Z,42.43
2019-02-05T08:35:34.306Z,45.43
2019-02-05T08:38:04.702Z,40.50
2019-02-05T08:40:33.411Z,44.83
2019-02-05T08:43:01.968Z,41.63
2019-02-05T08:45:31.143Z,43.63
2019-02-05T08:47:59.363Z,44.30
2019-02-05T08:50:28.628Z,46.57
2019-02-05T08:52:57.003Z,44.60
2019-02-05T08:55:25.364Z,48.03
2019-02-05T08:57:57.687Z,46.03
2019-02-05T09:00:29.920Z,43.87
2019-02-05T09:02:59.486Z,47.83
2019-02-05T09:05:27.691Z,46.07
2019-02-05T09:07:55.854Z,52.20
2019-02-05T09:10:27.609Z,45.77
2019-02-05T09:12:55.947Z,49.53
2019-02-05T09:15:29.568Z,47.50
2019-02-05T09:17:55.207Z,49.27
2019-02-05T09:20:23.457Z,51.87
2019-02-05T09:22:51.676Z,47.73
2019-02-05T09:25:20.373Z,52.40
2019-02-05T09:27:48.719Z,51.33
2019-02-05T09:30:19.880Z,46.17
2019-02-05T09:32:49.571Z,51.10
2019-02-05T09:35:17.948Z,48.67
2019-02-05T09:37:47.230Z,43.33
2019-02-05T09:40:22.413Z,51.77
2019-02-05T09:42:50.913Z,49.00
2019-02-05T09:45:20.131Z,51.23
2019-02-05T09:47:49.452Z,48.97
2019-02-05T09:50:17.771Z,46.03
2019-02-05T09:52:46.138Z,44.70
2019-02-05T09:55:15.185Z,47.07
2019-02-05T09:57:43.433Z,44.53
2019-02-05T10:00:19.390Z,46.63
2019-02-05T10:02:47.551Z,43.80
2019-02-05T10:05:17.775Z,46.77
2019-02-05T10:07:45.918Z,45.83
2019-02-05T10:10:16.018Z,49.43
2019-02-05T10:12:46.918Z,43.70
2019-02-05T10:15:26.381Z,44.73
2019-02-05T10:17:54.771Z,44.07
2019-02-05T10:20:24.356Z,46.57
2019-02-05T10:22:53.998Z,47.13
2019-02-05T10:25:22.241Z,42.83
2019-02-05T10:27:50.719Z,45.47
2019-02-05T10:30:22.857Z,41.37
2019-02-05T10:32:51.272Z,42.00
2019-02-05T10:35:20.165Z,41.87
2019-02-05T10:37:49.003Z,40.63
2019-02-05T10:40:17.995Z,36.77
2019-02-05T10:42:46.844Z,39.87
2019-02-05T10:45:16.526Z,42.23
2019-02-05T10:47:47.231Z,36.20
2019-02-05T10:50:16.508Z,36.23
2019-02-05T10:52:45.274Z,33.53
2019-02-05T10:55:17.820Z,38.43
2019-02-05T10:57:46.441Z,35.33
2019-02-05T11:00:21.318Z,30.60
2019-02-05T11:02:49.726Z,34.13
2019-02-05T11:05:21.156Z,31.90
2019-02-05T11:07:49.369Z,35.47
2019-02-05T11:10:18.126Z,34.90
2019-02-05T11:12:46.387Z,31.57
2019-02-05T11:15:20.990Z,29.90
2019-02-05T11:17:49.347Z,34.63
2019-02-05T11:20:20.791Z,31.70
2019-02-05T11:22:49.174Z,36.17
2019-02-05T11:25:17.594Z,34.87
2019-02-05T11:27:46.198Z,33.47
2019-02-05T11:30:22.288Z,35.27
2019-02-05T11:32:52.917Z,32.40
2019-02-05T11:35:21.050Z,32.40
2019-02-05T11:37:49.836Z,33.30
2019-02-05T11:40:22.106Z,30.63
2019-02-05T11:42:50.492Z,33.07
2019-02-05T11:45:19.442Z,33.23
2019-02-05T11:47:48.391Z,34.03
2019-02-05T11:50:17.278Z,31.07
2019-02-05T11:52:45.649Z,31.93
2019-02-05T11:55:16.640Z,34.03
2019-02-05T11:57:44.885Z,30.53
2019-02-05T12:00:32.045Z,35.43
2019-02-05T12:02:51.956Z,33.03
2019-02-05T12:05:20.319Z,29.97
2019-02-05T12:07:49.712Z,35.37
2019-02-05T12:10:18.507Z,36.80
2019-02-05T12:12:46.651Z,33.07
2019-02-05T12:15:15.538Z,30.03
2019-02-05T12:17:43.727Z,33.33
2019-02-05T12:20:13.299Z,37.17
2019-02-05T12:22:42.167Z,35.00
2019-02-05T12:25:13.713Z,36.33
2019-02-05T12:27:42.480Z,33.13
2019-02-05T12:30:17.246Z,30.77
2019-02-05T12:32:45.408Z,37.80
2019-02-05T12:35:13.886Z,36.90
2019-02-05T12:37:42.094Z,35.00
2019-02-05T12:40:12.335Z,33.73
2019-02-05T12:42:40.808Z,36.27
2019-02-05T12:45:16.786Z,35.60
2019-02-05T12:47:45.351Z,38.10
2019-02-05T12:50:17.654Z,41.63
2019-02-05T12:52:45.850Z,33.67
2019-02-05T12:55:15.137Z,32.87
2019-02-05T12:57:44.744Z,35.43
2019-02-05T13:00:21.384Z,37.80
2019-02-05T13:02:49.681Z,36.10
2019-02-05T13:05:18.507Z,38.40
2019-02-05T13:07:46.762Z,36.17
2019-02-05T13:10:18.034Z,36.50
2019-02-05T13:12:46.466Z,39.70
2019-02-05T13:15:15.650Z,34.83
2019-02-05T13:17:43.775Z,37.80
2019-02-05T13:20:17.729Z,35.97
2019-02-05T13:22:46.057Z,30.93
2019-02-05T13:25:18.184Z,30.07
2019-02-05T13:27:47.479Z,27.03
2019-02-05T13:30:19.574Z,32.43
2019-02-05T13:32:47.786Z,32.03
2019-02-05T13:35:16.653Z,33.13
2019-02-05T13:37:46.898Z,31.20
2019-02-05T13:40:18.438Z,31.20
2019-02-05T13:42:46.865Z,27.70
2019-02-05T13:45:19.443Z,31.60
2019-02-05T13:47:48.659Z,34.20
2019-02-05T13:50:32.420Z,29.90
2019-02-05T13:52:53.146Z,32.97
2019-02-05T13:55:24.431Z,33.77
2019-02-05T13:57:52.661Z,28.97
2019-02-05T14:00:27.680Z,30.20
2019-02-05T14:02:56.598Z,31.13
2019-02-05T14:05:25.333Z,28.13
2019-02-05T14:07:53.542Z,27.77
2019-02-05T14:10:28.517Z,29.77
2019-02-05T14:12:57.126Z,28.90
2019-02-05T14:15:28.242Z,30.20
2019-02-05T14:17:56.520Z,28.13
2019-02-05T14:20:24.937Z,24.30
2019-02-05T14:22:55.293Z,28.93
2019-02-05T14:25:23.675Z,28.93
2019-02-05T14:27:58.040Z,27.77
2019-02-05T14:30:54.472Z,28.67
2019-02-05T14:33:23.937Z,27.73
2019-02-05T14:35:52.257Z,25.00
2019-02-05T14:38:20.755Z,28.17
2019-02-05T14:40:49.101Z,28.90
2019-02-05T14:43:17.467Z,22.77
2019-02-05T14:45:45.909Z,26.30
2019-02-05T14:48:14.325Z,30.43
2019-02-05T14:50:43.374Z,26.90
2019-02-05T14:53:12.108Z,29.07
2019-02-05T14:55:40.289Z,32.30
2019-02-05T14:58:13.002Z,30.27
2019-02-05T15:00:41.548Z,31.07
2019-02-05T15:03:11.560Z,27.70
2019-02-05T15:05:40.586Z,30.47
2019-02-05T15:08:10.064Z,27.23
2019-02-05T15:10:38.430Z,31.90
2019-02-05T15:13:07.118Z,30.83
2019-02-05T15:15:35.507Z,30.70
2019-02-05T15:18:08.264Z,28.77
2019-02-05T15:20:40.049Z,30.97
2019-02-05T15:23:08.784Z,31.53
2019-02-05T15:25:37.506Z,30.10
2019-02-05T15:28:06.803Z,26.77
2019-02-05T15:30:38.094Z,29.27
2019-02-05T15:33:27.938Z,31.57
2019-02-05T15:35:59.016Z,30.20
2019-02-05T15:38:28.887Z,27.60
2019-02-05T15:40:58.228Z,27.57
2019-02-05T15:43:27.104Z,26.37
2019-02-05T15:45:55.305Z,28.47
2019-02-05T15:48:23.978Z,26.37
2019-02-05T15:50:52.394Z,28.77
2019-02-05T15:53:20.817Z,33.17
2019-02-05T15:55:48.978Z,27.60
2019-02-05T15:58:17.976Z,32.13
2019-02-05T16:00:46.343Z,29.13
2019-02-05T16:03:14.587Z,29.90
2019-02-05T16:05:42.809Z,30.80
2019-02-05T16:08:10.944Z,29.93
2019-02-05T16:10:39.602Z,29.97
2019-02-05T16:13:07.728Z,35.10
2019-02-05T16:15:37.917Z,29.37
2019-02-05T16:18:06.823Z,30.27
2019-02-05T16:20:35.044Z,32.17
2019-02-05T16:23:03.568Z,36.13
2019-02-05T16:25:32.036Z,31.13
2019-02-05T16:28:00.627Z,31.60
2019-02-05T16:30:28.775Z,28.13
2019-02-05T16:32:57.042Z,37.73
2019-02-05T16:35:26.551Z,34.53
2019-02-05T16:37:54.916Z,34.10
2019-02-05T16:40:25.026Z,33.87
2019-02-05T16:42:53.794Z,36.83
2019-02-05T16:45:24.780Z,28.63
2019-02-05T16:47:52.884Z,35.57
2019-02-05T16:50:24.860Z,31.87
2019-02-05T16:52:53.654Z,37.07
2019-02-05T16:55:21.980Z,35.27
2019-02-05T16:57:50.572Z,35.00
2019-02-05T17:00:22.791Z,33.83
2019-02-05T17:02:51.190Z,34.03
2019-02-05T17:05:21.735Z,36.33
2019-02-05T17:07:49.923Z,42.77
2019-02-05T17:10:19.211Z,35.37
2019-02-05T17:12:47.873Z,41.30
2019-02-05T17:15:17.803Z,38.47
2019-02-05T17:17:46.080Z,39.83
2019-02-05T17:20:21.675Z,38.73
2019-02-05T17:22:50.395Z,42.60
2019-02-05T17:25:19.614Z,44.23
2019-02-05T17:27:48.071Z,40.43
2019-02-05T17:30:20.234Z,40.87
2019-02-05T17:32:48.519Z,43.17
2019-02-05T17:35:18.051Z,41.33
2019-02-05T17:37:49.365Z,44.17
2019-02-05T17:40:22.334Z,42.70
2019-02-05T17:42:51.352Z,45.20
2019-02-05T17:45:23.109Z,47.53
2019-02-05T17:47:52.561Z,50.20
2019-02-05T17:50:20.794Z,49.00
2019-02-05T17:52:49.067Z,44.67
2019-02-05T17:55:18.234Z,49.03
2019-02-05T17:57:46.572Z,44.73
2019-02-05T18:00:25.864Z,49.03
2019-02-05T18:02:55.210Z,49.23
2019-02-05T18:05:26.237Z,47.70
2019-02-05T18:07:55.115Z,50.90
2019-02-05T18:10:25.891Z,51.93
2019-02-05T18:12:54.790Z,50.83
2019-02-05T18:15:27.276Z,52.63
2019-02-05T18:17:55.565Z,53.73
2019-02-05T18:20:23.865Z,54.87
2019-02-05T18:22:52.710Z,53.80
2019-02-05T18:25:21.155Z,55.57
2019-02-05T18:27:49.753Z,57.10
2019-02-05T18:30:29.053Z,55.43
2019-02-05T18:33:04.266Z,58.20
2019-02-05T18:35:29.247Z,62.90
2019-02-05T18:37:57.879Z,67.73
2019-02-05T18:40:26.213Z,63.67
2019-02-05T18:42:54.751Z,59.63
2019-02-05T18:45:24.030Z,61.63
2019-02-05T18:47:52.233Z,67.90
2019-02-05T18:50:23.281Z,61.27
2019-02-05T18:52:53.627Z,60.77
2019-02-05T18:55:24.309Z,60.77
2019-02-05T18:57:53.465Z,61.90
2019-02-05T19:00:28.370Z,57.73
2019-02-05T19:02:56.696Z,62.30
2019-02-05T19:05:25.407Z,60.97
2019-02-05T19:07:54.681Z,61.73
2019-02-05T19:10:25.107Z,63.03
2019-02-05T19:12:53.762Z,59.97
2019-02-05T19:15:28.338Z,61.20
2019-02-05T19:17:56.962Z,64.13
2019-02-05T19:20:27.700Z,61.10
2019-02-05T19:22:56.251Z,62.87
2019-02-05T19:25:32.793Z,65.37
2019-02-05T19:28:00.907Z,62.50
2019-02-05T19:30:30.718Z,64.53
2019-02-05T19:32:59.263Z,61.93
2019-02-05T19:35:27.676Z,61.53
2019-02-05T19:37:55.938Z,66.07
2019-02-05T19:40:24.301Z,73.80
2019-02-05T19:42:52.626Z,68.43
2019-02-05T19:45:42.914Z,67.97
2019-02-05T19:48:18.208Z,66.90
2019-02-05T19:50:46.793Z,68.33
2019-02-05T19:53:15.150Z,70.87
2019-02-05T19:55:43.499Z,71.13
2019-02-05T19:58:13.161Z,76.20
2019-02-05T20:00:41.245Z,68.67
2019-02-05T20:03:09.801Z,76.53
2019-02-05T20:05:37.847Z,79.50
2019-02-05T20:08:06.077Z,70.77
2019-02-05T20:10:34.296Z,77.03
2019-02-05T20:13:03.358Z,67.83
2019-02-05T20:15:32.101Z,80.57
2019-02-05T20:18:00.217Z,68.33
2019-02-05T20:20:31.604Z,75.80
2019-02-05T20:22:59.049Z,80.97
2019-02-05T20:25:27.477Z,76.30
2019-02-05T20:27:55.617Z,74.23
2019-02-05T20:30:24.026Z,78.10
2019-02-05T20:32:52.233Z,74.33
2019-02-05T20:35:20.814Z,72.90
2019-02-05T20:37:49.294Z,73.60
2019-02-05T20:40:17.752Z,71.93
2019-02-05T20:43:05.338Z,73.27
2019-02-05T20:45:33.577Z,70.10
2019-02-05T20:48:01.644Z,76.90
2019-02-05T20:50:29.787Z,73.97
2019-02-05T20:52:58.339Z,74.63
2019-02-05T20:55:26.648Z,79.67
2019-02-05T20:57:54.965Z,77.57
2019-02-05T21:00:23.282Z,75.07
2019-02-05T21:02:51.431Z,73.30
2019-02-05T21:05:19.893Z,74.43
2019-02-05T21:07:50.621Z,82.90
2019-02-05T21:10:21.492Z,72.77
2019-02-05T21:12:49.752Z,76.87
2019-02-05T21:15:18.580Z,79.93
2019-02-05T21:17:46.895Z,76.80
2019-02-05T21:20:28.401Z,71.20
2019-02-05T21:22:47.935Z,72.80
2019-02-05T21:25:18.483Z,78.20
2019-02-05T21:27:46.913Z,74.57
2019-02-05T21:30:17.826Z,78.80
2019-02-05T21:32:47.988Z,72.47
2019-02-05T21:35:16.605Z,75.47
2019-02-05T21:37:45.152Z,75.00
2019-02-05T21:40:17.051Z,84.27
2019-02-05T21:42:45.266Z,74.60
2019-02-05T21:45:16.611Z,76.17
2019-02-05T21:47:46.641Z,84.27
2019-02-05T21:50:18.347Z,82.13
2019-02-05T21:52:48.681Z,89.57
2019-02-05T21:55:17.787Z,84.17
2019-02-05T21:57:48.131Z,87.57
2019-02-05T22:00:23.345Z,86.67
2019-02-05T22:02:51.893Z,80.40
2019-02-05T22:05:22.271Z,85.53
2019-02-05T22:07:50.562Z,86.03
2019-02-05T22:10:19.874Z,88.17
2019-02-05T22:12:48.392Z,85.20
2019-02-05T22:15:17.431Z,78.93
2019-02-05T22:17:45.980Z,91.87
2019-02-05T22:20:20.405Z,82.57
2019-02-05T22:22:48.762Z,93.87
2019-02-05T22:25:23.333Z,74.73
2019-02-05T22:27:52.619Z,71.70
2019-02-05T22:30:23.877Z,68.33
2019-02-05T22:32:52.097Z,76.60
2019-02-05T22:35:20.461Z,72.43
2019-02-05T22:37:49.237Z,80.30
2019-02-05T22:40:19.736Z,75.87
2019-02-05T22:42:47.978Z,76.77
2019-02-05T22:45:16.753Z,76.70
2019-02-05T22:47:45.296Z,76.20
2019-02-05T22:50:16.921Z,79.70
2019-02-05T22:52:45.391Z,81.03
2019-02-05T22:55:15.756Z,77.90
2019-02-05T22:57:44.275Z,79.90
2019-02-05T23:00:50.316Z,81.97
2019-02-05T23:03:35.630Z,82.37
2019-02-05T23:07:17.449Z,83.13
2019-02-05T23:10:21.224Z,74.53
2019-02-05T23:13:16.900Z,79.33
2019-02-05T23:15:48.087Z,87.50
2019-02-05T23:18:16.670Z,83.37
2019-02-05T23:20:45.039Z,82.20
2019-02-05T23:23:13.714Z,81.30
2019-02-05T23:25:41.935Z,82.50
2019-02-05T23:28:10.249Z,80.03
2019-02-05T23:30:38.506Z,78.73
2019-02-05T23:33:07.166Z,79.93
2019-02-05T23:35:35.401Z,79.83
2019-02-05T23:38:04.046Z,76.77
2019-02-05T23:40:32.173Z,79.20
2019-02-05T23:43:00.238Z,74.43
2019-02-05T23:45:28.575Z,76.23
2019-02-05T23:47:56.831Z,73.33
2019-02-05T23:50:25.184Z,74.87
2019-02-05T23:52:53.359Z,82.47
2019-02-05T23:55:21.499Z,75.63
2019-02-05T23:57:51.209Z,74.60
